Time,TemperatureF,DewpointF,PressureIn,WindDirection,WindDirectionDegrees,WindSpeedMPH,WindSpeedGustMPH,Humidity,HourlyPrecipIn,Conditions,Clouds,dailyrainin,SoftwareType,DateUTC
2013-03-23 00:08:00,43.3,26.4,29.81,SW,225,0.0,-999.0,51,-99.99,,,0.00,Acu-Link.com,2013-03-23 04:08:00,
2013-03-23 00:23:00,42.6,26.7,29.81,WSW,247,0.0,-999.0,53,-99.99,,,0.00,Acu-Link.com,2013-03-23 04:23:00,
2013-03-23 00:38:00,42.3,26.4,29.82,South,180,0.0,-999.0,53,-99.99,,,0.00,Acu-Link.com,2013-03-23 04:38:00,
2013-03-23 00:53:00,42.6,27.1,29.81,ESE,112,0.0,-999.0,54,-99.99,,,0.00,Acu-Link.com,2013-03-23 04:53:00,
2013-03-23 01:08:00,42.4,27.4,29.80,NNW,337,0.0,-999.0,55,-99.99,,,0.00,Acu-Link.com,2013-03-23 05:08:00,
2013-03-23 01:23:00,42.6,27.6,29.80,WSW,247,0.0,-999.0,55,-99.99,,,0.00,Acu-Link.com,2013-03-23 05:23:00,
2013-03-23 01:38:00,42.3,27.7,29.80,ESE,112,0.0,-999.0,56,-99.99,,,0.00,Acu-Link.com,2013-03-23 05:38:00,
2013-03-23 01:53:00,42.3,27.7,29.79,SE,135,0.0,-999.0,56,-99.99,,,0.00,Acu-Link.com,2013-03-23 05:53:00,
2013-03-23 02:08:00,42.3,28.2,29.80,NNW,337,0.0,-999.0,57,-99.99,,,0.00,Acu-Link.com,2013-03-23 06:08:00,
2013-03-23 02:24:00,42.4,28.3,29.79,NNW,337,1.1,-999.0,57,-99.99,,,0.00,Acu-Link.com,2013-03-23 06:24:00,
2013-03-23 02:39:00,42.3,29.4,29.79,West,270,0.0,-999.0,60,-99.99,,,0.00,Acu-Link.com,2013-03-23 06:39:00,
2013-03-23 02:54:00,42.8,28.6,29.79,West,270,1.7,-999.0,57,-99.99,,,0.00,Acu-Link.com,2013-03-23 06:54:00,
2013-03-23 03:09:00,43.0,28.8,29.78,NNW,337,0.0,-999.0,57,-99.99,,,0.00,Acu-Link.com,2013-03-23 07:09:00,
2013-03-23 03:24:00,42.8,29.5,29.78,West,270,0.0,-999.0,59,-99.99,,,0.00,Acu-Link.com,2013-03-23 07:24:00,
2013-03-23 03:39:00,42.6,28.9,29.78,WNW,292,0.0,-999.0,58,-99.99,,,0.00,Acu-Link.com,2013-03-23 07:39:00,
2013-03-23 03:54:00,42.6,28.9,29.76,SSE,157,0.0,-999.0,58,-99.99,,,0.00,Acu-Link.com,2013-03-23 07:54:00,
2013-03-23 04:10:00,42.8,29.1,29.75,NE,45,0.0,-999.0,58,-99.99,,,0.00,Acu-Link.com,2013-03-23 08:10:00,
2013-03-23 04:25:00,43.0,29.2,29.76,NNW,337,0.0,-999.0,58,-99.99,,,0.00,Acu-Link.com,2013-03-23 08:25:00,
2013-03-23 04:40:00,43.0,29.7,29.76,WNW,292,0.0,-999.0,59,-99.99,,,0.00,Acu-Link.com,2013-03-23 08:40:00,
2013-03-23 04:56:00,43.0,29.7,29.75,North,0,0.0,-999.0,59,-99.99,,,0.00,Acu-Link.com,2013-03-23 08:56:00,
2013-03-23 05:11:00,43.0,29.7,29.75,NNE,22,2.2,-999.0,59,-99.99,,,0.00,Acu-Link.com,2013-03-23 09:11:00,
2013-03-23 05:56:00,43.2,30.3,29.75,West,270,0.0,-999.0,60,-99.99,,,0.00,Acu-Link.com,2013-03-23 09:56:00,
2013-03-23 06:11:00,43.0,31.7,29.76,SW,225,0.0,-999.0,64,-99.99,,,0.00,Acu-Link.com,2013-03-23 10:11:00,
2013-03-23 06:26:00,43.2,31.1,29.77,WSW,247,0.0,-999.0,62,-99.99,,,0.00,Acu-Link.com,2013-03-23 10:26:00,
2013-03-23 06:56:00,43.3,31.6,29.78,SSE,157,0.0,-999.0,63,-99.99,,,0.00,Acu-Link.com,2013-03-23 10:56:00,
2013-03-23 07:12:00,42.8,34.4,29.78,West,270,1.1,-999.0,72,-99.99,,,0.00,Acu-Link.com,2013-03-23 11:12:00,
2013-03-23 07:27:00,41.7,36.6,29.78,East,90,0.0,-999.0,82,-99.99,,,0.01,Acu-Link.com,2013-03-23 11:27:00,
2013-03-23 07:42:00,41.0,35.9,29.79,East,90,0.0,-999.0,82,-99.99,,,0.01,Acu-Link.com,2013-03-23 11:42:00,
2013-03-23 07:57:00,40.8,36.6,29.79,East,90,0.0,-999.0,85,-99.99,,,0.02,Acu-Link.com,2013-03-23 11:57:00,
2013-03-23 08:12:00,40.5,36.9,29.79,East,90,0.0,-999.0,87,-99.99,,,0.02,Acu-Link.com,2013-03-23 12:12:00,
2013-03-23 08:27:00,40.1,37.7,29.80,East,90,0.0,-999.0,91,-99.99,,,0.03,Acu-Link.com,2013-03-23 12:27:00,
2013-03-23 08:42:00,40.3,38.2,29.80,East,90,0.0,-999.0,92,-99.99,,,0.03,Acu-Link.com,2013-03-23 12:42:00,
2013-03-23 08:57:00,39.9,38.3,29.82,East,90,1.1,-999.0,94,-99.99,,,0.03,Acu-Link.com,2013-03-23 12:57:00,
2013-03-23 09:12:00,40.1,38.2,29.82,East,90,0.0,-999.0,93,-99.99,,,0.03,Acu-Link.com,2013-03-23 13:12:00,
2013-03-23 09:27:00,40.1,38.8,29.83,NNE,22,0.0,-999.0,95,-99.99,,,0.04,Acu-Link.com,2013-03-23 13:27:00,
2013-03-23 09:43:00,40.6,39.0,29.81,NNE,22,0.0,-999.0,94,-99.99,,,0.04,Acu-Link.com,2013-03-23 13:43:00,
2013-03-23 09:58:00,40.8,39.5,29.81,NNE,22,0.0,-999.0,95,-99.99,,,0.04,Acu-Link.com,2013-03-23 13:58:00,
2013-03-23 10:13:00,41.2,39.9,29.81,West,270,0.0,-999.0,95,-99.99,,,0.04,Acu-Link.com,2013-03-23 14:13:00,
2013-03-23 10:28:00,42.1,40.2,29.81,NNE,22,0.0,-999.0,93,-99.99,,,0.04,Acu-Link.com,2013-03-23 14:28:00,
2013-03-23 10:43:00,43.3,41.1,29.79,NE,45,0.0,-999.0,92,-99.99,,,0.04,Acu-Link.com,2013-03-23 14:43:00,
2013-03-23 10:58:00,43.5,41.3,29.78,ESE,112,2.7,-999.0,92,-99.99,,,0.04,Acu-Link.com,2013-03-23 14:58:00,
2013-03-23 11:13:00,43.2,41.3,29.78,SSW,202,1.7,-999.0,93,-99.99,,,0.04,Acu-Link.com,2013-03-23 15:13:00,
2013-03-23 11:28:00,43.7,42.1,29.77,SSW,202,0.0,-999.0,94,-99.99,,,0.04,Acu-Link.com,2013-03-23 15:28:00,
2013-03-23 11:59:00,43.9,41.2,29.79,ESE,112,1.7,-999.0,90,-99.99,,,0.04,Acu-Link.com,2013-03-23 15:59:00,
2013-03-23 12:14:00,43.9,42.0,29.79,SSW,202,0.0,-999.0,93,-99.99,,,0.04,Acu-Link.com,2013-03-23 16:14:00,
2013-03-23 12:29:00,43.9,42.3,29.79,SSW,202,1.7,-999.0,94,-99.99,,,0.04,Acu-Link.com,2013-03-23 16:29:00,
2013-03-23 12:44:00,44.4,42.8,29.78,SW,225,1.7,-999.0,94,-99.99,,,0.04,Acu-Link.com,2013-03-23 16:44:00,
2013-03-23 12:59:00,44.6,42.4,29.78,SSE,157,0.0,-999.0,92,-99.99,,,0.04,Acu-Link.com,2013-03-23 16:59:00,
2013-03-23 13:14:00,44.2,42.0,29.78,South,180,1.7,-999.0,92,-99.99,,,0.04,Acu-Link.com,2013-03-23 17:14:00,
2013-03-23 13:29:00,44.1,42.2,29.77,West,270,1.1,-999.0,93,-99.99,,,0.04,Acu-Link.com,2013-03-23 17:29:00,
2013-03-23 13:44:00,44.4,42.5,29.76,NNE,22,1.1,-999.0,93,-99.99,,,0.04,Acu-Link.com,2013-03-23 17:44:00,
2013-03-23 13:59:00,44.6,42.4,29.76,SE,135,2.2,-999.0,92,-99.99,,,0.04,Acu-Link.com,2013-03-23 17:59:00,
2013-03-23 14:15:00,45.5,43.6,29.75,SE,135,1.7,-999.0,93,-99.99,,,0.04,Acu-Link.com,2013-03-23 18:15:00,
2013-03-23 14:30:00,46.9,43.8,29.74,South,180,2.7,-999.0,89,-99.99,,,0.04,Acu-Link.com,2013-03-23 18:30:00,
2013-03-23 14:45:00,47.7,44.3,29.73,South,180,1.1,-999.0,88,-99.99,,,0.04,Acu-Link.com,2013-03-23 18:45:00,
2013-03-23 15:00:00,48.7,44.7,29.73,South,180,2.2,-999.0,86,-99.99,,,0.04,Acu-Link.com,2013-03-23 19:00:00,
2013-03-23 15:15:00,48.7,44.7,29.73,ENE,67,2.2,-999.0,86,-99.99,,,0.04,Acu-Link.com,2013-03-23 19:15:00,
2013-03-23 15:30:00,48.9,45.2,29.73,WSW,247,0.0,-999.0,87,-99.99,,,0.04,Acu-Link.com,2013-03-23 19:30:00,
2013-03-23 15:45:00,48.9,45.2,29.72,NNE,22,2.2,-999.0,87,-99.99,,,0.04,Acu-Link.com,2013-03-23 19:45:00,
2013-03-23 16:00:00,49.6,45.6,29.71,SW,225,1.1,-999.0,86,-99.99,,,0.04,Acu-Link.com,2013-03-23 20:00:00,
2013-03-23 16:15:00,50.4,46.1,29.70,ESE,112,1.1,-999.0,85,-99.99,,,0.04,Acu-Link.com,2013-03-23 20:15:00,
2013-03-23 16:31:00,51.1,45.8,29.70,SW,225,1.7,-999.0,82,-99.99,,,0.04,Acu-Link.com,2013-03-23 20:31:00,
2013-03-23 16:46:00,49.5,45.5,29.69,SW,225,2.2,-999.0,86,-99.99,,,0.04,Acu-Link.com,2013-03-23 20:46:00,
2013-03-23 18:01:00,50.2,45.9,29.68,WSW,247,2.2,-999.0,85,-99.99,,,0.04,Acu-Link.com,2013-03-23 22:01:00,
2013-03-23 18:16:00,51.4,46.4,29.68,SW,225,2.2,-999.0,83,-99.99,,,0.04,Acu-Link.com,2013-03-23 22:16:00,
2013-03-23 18:31:00,51.1,46.1,29.69,SE,135,1.7,-999.0,83,-99.99,,,0.04,Acu-Link.com,2013-03-23 22:31:00,
2013-03-23 18:47:00,50.5,45.8,29.69,WSW,247,0.0,-999.0,84,-99.99,,,0.04,Acu-Link.com,2013-03-23 22:47:00,
2013-03-23 19:02:00,50.4,45.8,29.70,West,270,1.7,-999.0,84,-99.99,,,0.04,Acu-Link.com,2013-03-23 23:02:00,
2013-03-23 19:17:00,50.5,45.5,29.71,ENE,67,0.0,-999.0,83,-99.99,,,0.04,Acu-Link.com,2013-03-23 23:17:00,
2013-03-23 19:32:00,49.8,45.5,29.70,SSW,202,0.0,-999.0,85,-99.99,,,0.04,Acu-Link.com,2013-03-23 23:32:00,
2013-03-23 19:47:00,48.9,44.9,29.71,SSW,202,0.0,-999.0,86,-99.99,,,0.04,Acu-Link.com,2013-03-23 23:47:00,
2013-03-23 20:02:00,48.2,43.9,29.70,South,180,0.0,-999.0,85,-99.99,,,0.04,Acu-Link.com,2013-03-24 00:02:00,
2013-03-23 20:17:00,46.9,43.5,29.69,ESE,112,0.0,-999.0,88,-99.99,,,0.04,Acu-Link.com,2013-03-24 00:17:00,
2013-03-23 20:32:00,46.0,43.2,29.70,ESE,112,0.0,-999.0,90,-99.99,,,0.04,Acu-Link.com,2013-03-24 00:32:00,
2013-03-23 20:47:00,45.7,43.8,29.70,ESE,112,0.0,-999.0,93,-99.99,,,0.04,Acu-Link.com,2013-03-24 00:47:00,
2013-03-23 21:02:00,45.5,43.9,29.70,SE,135,0.0,-999.0,94,-99.99,,,0.04,Acu-Link.com,2013-03-24 01:02:00,
2013-03-23 21:18:00,45.7,44.4,29.69,SW,225,0.0,-999.0,95,-99.99,,,0.04,Acu-Link.com,2013-03-24 01:18:00,
2013-03-23 21:33:00,45.9,44.5,29.69,SE,135,1.1,-999.0,95,-99.99,,,0.04,Acu-Link.com,2013-03-24 01:33:00,
2013-03-23 21:48:00,45.9,44.5,29.70,WSW,247,1.1,-999.0,95,-99.99,,,0.04,Acu-Link.com,2013-03-24 01:48:00,
2013-03-23 22:03:00,45.3,44.0,29.70,SW,225,2.7,-999.0,95,-99.99,,,0.04,Acu-Link.com,2013-03-24 02:03:00,
2013-03-23 22:18:00,45.1,44.0,29.71,SW,225,0.0,-999.0,96,-99.99,,,0.04,Acu-Link.com,2013-03-24 02:18:00,
2013-03-23 22:33:00,44.8,44.0,29.70,SW,225,1.7,-999.0,97,-99.99,,,0.04,Acu-Link.com,2013-03-24 02:33:00,
2013-03-23 22:48:00,44.6,43.8,29.68,SW,225,1.7,-999.0,97,-99.99,,,0.04,Acu-Link.com,2013-03-24 02:48:00,
2013-03-23 23:03:00,44.6,43.5,29.69,SE,135,2.2,-999.0,96,-99.99,,,0.04,Acu-Link.com,2013-03-24 03:03:00,
2013-03-23 23:18:00,44.8,43.5,29.70,WSW,247,1.1,-999.0,95,-99.99,,,0.04,Acu-Link.com,2013-03-24 03:18:00,
2013-03-23 23:34:00,44.8,43.5,29.68,SSE,157,1.7,-999.0,95,-99.99,,,0.04,Acu-Link.com,2013-03-24 03:34:00,
2013-03-23 23:49:00,44.6,43.3,29.67,East,90,0.0,-999.0,95,-99.99,,,0.04,Acu-Link.com,2013-03-24 03:49:00,